sensor_id;sensor_type;location;lat;lon;timestamp;pressure;altitude;pressure_sealevel;temperature;humidity
25420;BME280;13354;48.174;11.566;2023-05-03T00:01:42;96392.16;;;9.26;94.54
25420;BME280;13354;48.174;11.566;2023-05-03T00:04:08;96390.34;;;9.18;94.83
25420;BME280;13354;48.174;11.566;2023-05-03T00:06:33;96385.72;;;9.12;94.50
25420;BME280;13354;48.174;11.566;2023-05-03T00:08:58;96388.03;;;8.99;95.12
25420;BME280;13354;48.174;11.566;2023-05-03T00:11:23;96382.25;;;8.95;96.51
25420;BME280;13354;48.174;11.566;2023-05-03T00:13:49;96379.94;;;9.00;97.18
25420;BME280;13354;48.174;11.566;2023-05-03T00:16:14;96382.91;;;8.97;97.41
25420;BME280;13354;48.174;11.566;2023-05-03T00:18:40;96383.22;;;8.94;97.45
25420;BME280;13354;48.174;11.566;2023-05-03T00:21:05;96376.47;;;8.91;97.24
25420;BME280;13354;48.174;11.566;2023-05-03T00:23:30;96370.84;;;8.78;97.11
25420;BME280;13354;48.174;11.566;2023-05-03T00:25:56;96377.44;;;8.74;97.42
25420;BME280;13354;48.174;11.566;2023-05-03T00:28:22;96364.75;;;8.69;98.07
25420;BME280;13354;48.174;11.566;2023-05-03T00:30:47;96369.19;;;8.69;98.90
25420;BME280;13354;48.174;11.566;2023-05-03T00:33:13;96369.84;;;8.71;99.54
25420;BME280;13354;48.174;11.566;2023-05-03T00:35:38;96368.03;;;8.71;99.85
25420;BME280;13354;48.174;11.566;2023-05-03T00:38:04;96369.34;;;8.76;100.00
25420;BME280;13354;48.174;11.566;2023-05-03T00:40:29;96370.84;;;8.78;100.00
25420;BME280;13354;48.174;11.566;2023-05-03T00:42:55;96373.47;;;8.78;100.00
25420;BME280;13354;48.174;11.566;2023-05-03T00:45:20;96364.75;;;8.86;100.00
25420;BME280;13354;48.174;11.566;2023-05-03T00:47:45;96358.50;;;8.95;100.00
25420;BME280;13354;48.174;11.566;2023-05-03T00:50:10;96364.91;;;9.01;100.00
25420;BME280;13354;48.174;11.566;2023-05-03T00:52:36;96365.72;;;9.01;100.00
25420;BME280;13354;48.174;11.566;2023-05-03T00:55:02;96364.75;;;9.02;100.00
25420;BME280;13354;48.174;11.566;2023-05-03T00:57:28;96364.91;;;9.09;99.77
25420;BME280;13354;48.174;11.566;2023-05-03T00:59:53;96363.25;;;9.08;99.59
25420;BME280;13354;48.174;11.566;2023-05-03T01:02:20;96365.22;;;8.98;99.62
25420;BME280;13354;48.174;11.566;2023-05-03T01:04:46;96372.97;;;8.91;99.77
25420;BME280;13354;48.174;11.566;2023-05-03T01:07:18;96366.88;;;8.90;99.83
25420;BME280;13354;48.174;11.566;2023-05-03T01:17:28;96359.59;;;8.68;99.51
25420;BME280;13354;48.174;11.566;2023-05-03T01:19:54;96355.00;;;8.70;99.27
25420;BME280;13354;48.174;11.566;2023-05-03T01:25:09;96354.50;;;8.58;97.22
25420;BME280;13354;48.174;11.566;2023-05-03T01:27:35;96357.09;;;8.50;96.90
25420;BME280;13354;48.174;11.566;2023-05-03T01:30:04;96358.91;;;8.50;96.67
25420;BME280;13354;48.174;11.566;2023-05-03T01:35:22;96381.50;;;8.44;96.39
25420;BME280;13354;48.174;11.566;2023-05-03T01:37:48;96370.28;;;8.42;96.84
25420;BME280;13354;48.174;11.566;2023-05-03T01:40:14;96371.09;;;8.42;98.38
25420;BME280;13354;48.174;11.566;2023-05-03T01:42:43;96372.78;;;8.43;98.76
25420;BME280;13354;48.174;11.566;2023-05-03T01:45:09;96364.19;;;8.41;98.72
25420;BME280;13354;48.174;11.566;2023-05-03T01:47:35;96368.81;;;8.48;98.52
25420;BME280;13354;48.174;11.566;2023-05-03T01:50:00;96365.19;;;8.40;98.37
25420;BME280;13354;48.174;11.566;2023-05-03T01:52:25;96364.50;;;8.46;98.27
25420;BME280;13354;48.174;11.566;2023-05-03T01:54:51;96360.91;;;8.48;98.56
25420;BME280;13354;48.174;11.566;2023-05-03T01:57:16;96361.22;;;8.44;98.74
25420;BME280;13354;48.174;11.566;2023-05-03T01:59:41;96368.66;;;8.49;99.31
25420;BME280;13354;48.174;11.566;2023-05-03T02:02:07;96370.81;;;8.54;99.69
25420;BME280;13354;48.174;11.566;2023-05-03T02:04:32;96362.06;;;8.61;99.80
25420;BME280;13354;48.174;11.566;2023-05-03T02:06:57;96368.34;;;8.60;99.99
25420;BME280;13354;48.174;11.566;2023-05-03T02:09:24;96361.56;;;8.58;100.00
25420;BME280;13354;48.174;11.566;2023-05-03T02:11:49;96365.69;;;8.60;100.00
25420;BME280;13354;48.174;11.566;2023-05-03T02:14:14;96366.88;;;8.66;100.00
25420;BME280;13354;48.174;11.566;2023-05-03T02:16:40;96364.56;;;8.71;100.00
25420;BME280;13354;48.174;11.566;2023-05-03T02:19:05;96357.97;;;8.75;100.00
25420;BME280;13354;48.174;11.566;2023-05-03T02:21:32;96364.06;;;8.76;100.00
25420;BME280;13354;48.174;11.566;2023-05-03T02:23:57;96361.09;;;8.87;100.00
25420;BME280;13354;48.174;11.566;2023-05-03T02:26:23;96357.50;;;8.88;100.00
25420;BME280;13354;48.174;11.566;2023-05-03T02:28:49;96360.94;;;8.88;100.00
25420;BME280;13354;48.174;11.566;2023-05-03T02:31:14;96367.88;;;8.89;100.00
25420;BME280;13354;48.174;11.566;2023-05-03T02:33:39;96363.91;;;9.02;100.00
25420;BME280;13354;48.174;11.566;2023-05-03T02:36:04;96362.75;;;9.04;100.00
25420;BME280;13354;48.174;11.566;2023-05-03T02:38:30;96364.09;;;9.00;100.00
25420;BME280;13354;48.174;11.566;2023-05-03T02:40:55;96363.91;;;8.93;100.00
25420;BME280;13354;48.174;11.566;2023-05-03T02:43:21;96367.91;;;9.06;100.00
25420;BME280;13354;48.174;11.566;2023-05-03T02:45:46;96365.59;;;9.03;100.00
25420;BME280;13354;48.174;11.566;2023-05-03T02:48:11;96358.47;;;9.19;100.00
25420;BME280;13354;48.174;11.566;2023-05-03T02:50:37;96357.16;;;9.07;100.00
25420;BME280;13354;48.174;11.566;2023-05-03T02:53:02;96360.13;;;9.04;100.00
25420;BME280;13354;48.174;11.566;2023-05-03T02:55:28;96360.44;;;9.01;100.00
25420;BME280;13354;48.174;11.566;2023-05-03T02:57:53;96360.94;;;8.97;100.00
25420;BME280;13354;48.174;11.566;2023-05-03T03:00:19;96357.63;;;8.94;100.00
25420;BME280;13354;48.174;11.566;2023-05-03T03:02:44;96366.91;;;8.99;100.00
25420;BME280;13354;48.174;11.566;2023-05-03T03:05:09;96368.19;;;8.86;99.78
25420;BME280;13354;48.174;11.566;2023-05-03T03:07:36;96372.47;;;8.79;100.00
25420;BME280;13354;48.174;11.566;2023-05-03T03:10:01;96371.66;;;8.79;100.00
25420;BME280;13354;48.174;11.566;2023-05-03T03:12:27;96376.44;;;8.75;100.00
25420;BME280;13354;48.174;11.566;2023-05-03T03:14:53;96376.75;;;8.72;100.00
25420;BME280;13354;48.174;11.566;2023-05-03T03:17:18;96373.31;;;8.71;100.00
25420;BME280;13354;48.174;11.566;2023-05-03T03:19:43;96373.66;;;8.77;100.00
25420;BME280;13354;48.174;11.566;2023-05-03T03:22:08;96370.84;;;8.86;99.42
25420;BME280;13354;48.174;11.566;2023-05-03T03:24:34;96374.81;;;8.82;98.85
25420;BME280;13354;48.174;11.566;2023-05-03T03:26:59;96363.56;;;8.72;98.71
25420;BME280;13354;48.174;11.566;2023-05-03T03:29:24;96375.25;;;8.61;99.45
25420;BME280;13354;48.174;11.566;2023-05-03T03:31:50;96370.47;;;8.57;100.00
25420;BME280;13354;48.174;11.566;2023-05-03T03:34:15;96373.78;;;8.59;100.00
25420;BME280;13354;48.174;11.566;2023-05-03T03:36:40;96374.09;;;8.48;100.00
25420;BME280;13354;48.174;11.566;2023-05-03T03:39:05;96378.41;;;8.57;100.00
25420;BME280;13354;48.174;11.566;2023-05-03T03:41:31;96378.75;;;8.62;100.00
25420;BME280;13354;48.174;11.566;2023-05-03T03:43:56;96376.56;;;8.57;100.00
25420;BME280;13354;48.174;11.566;2023-05-03T03:46:22;96375.63;;;8.58;100.00
25420;BME280;13354;48.174;11.566;2023-05-03T03:48:47;96375.63;;;8.58;100.00
25420;BME280;13354;48.174;11.566;2023-05-03T03:51:12;96374.63;;;8.67;100.00
25420;BME280;13354;48.174;11.566;2023-05-03T03:53:37;96373.13;;;8.65;100.00
25420;BME280;13354;48.174;11.566;2023-05-03T03:56:03;96374.13;;;8.72;100.00
25420;BME280;13354;48.174;11.566;2023-05-03T03:58:28;96375.94;;;8.80;100.00
25420;BME280;13354;48.174;11.566;2023-05-03T04:00:53;96384.03;;;8.62;100.00
25420;BME280;13354;48.174;11.566;2023-05-03T04:03:19;96381.84;;;8.57;100.00
25420;BME280;13354;48.174;11.566;2023-05-03T04:05:44;96388.31;;;8.55;100.00
25420;BME280;13354;48.174;11.566;2023-05-03T04:08:09;96386.50;;;8.55;100.00
25420;BME280;13354;48.174;11.566;2023-05-03T04:10:35;96379.88;;;8.51;100.00
25420;BME280;13354;48.174;11.566;2023-05-03T04:13:00;96382.84;;;8.48;100.00
25420;BME280;13354;48.174;11.566;2023-05-03T04:15:25;96383.16;;;8.53;100.00
25420;BME280;13354;48.174;11.566;2023-05-03T04:17:51;96387.75;;;8.43;100.00
25420;BME280;13354;48.174;11.566;2023-05-03T04:20:16;96387.81;;;8.51;100.00
25420;BME280;13354;48.174;11.566;2023-05-03T04:22:41;96389.94;;;8.48;100.00
25420;BME280;13354;48.174;11.566;2023-05-03T04:25:09;96394.72;;;8.52;100.00
25420;BME280;13354;48.174;11.566;2023-05-03T04:27:34;96397.84;;;8.48;100.00
25420;BME280;13354;48.174;11.566;2023-05-03T04:29:59;96396.19;;;8.46;100.00
25420;BME280;13354;48.174;11.566;2023-05-03T04:32:25;96400.50;;;8.56;100.00
25420;BME280;13354;48.174;11.566;2023-05-03T04:34:51;96401.66;;;8.53;100.00
25420;BME280;13354;48.174;11.566;2023-05-03T04:37:21;96406.56;;;8.40;100.00
25420;BME280;13354;48.174;11.566;2023-05-03T04:39:46;96405.09;;;8.45;100.00
25420;BME280;13354;48.174;11.566;2023-05-03T04:42:12;96414.63;;;8.38;100.00
25420;BME280;13354;48.174;11.566;2023-05-03T04:44:39;96410.56;;;8.52;100.00
25420;BME280;13354;48.174;11.566;2023-05-03T04:47:04;96416.63;;;8.44;100.00
25420;BME280;13354;48.174;11.566;2023-05-03T04:49:29;96409.88;;;8.50;100.00
25420;BME280;13354;48.174;11.566;2023-05-03T04:51:55;96413.53;;;8.57;100.00
25420;BME280;13354;48.174;11.566;2023-05-03T04:54:20;96422.75;;;8.53;100.00
25420;BME280;13354;48.174;11.566;2023-05-03T04:56:45;96414.84;;;8.53;100.00
25420;BME280;13354;48.174;11.566;2023-05-03T04:59:10;96419.31;;;8.53;100.00
25420;BME280;13354;48.174;11.566;2023-05-03T05:01:36;96420.59;;;8.49;100.00
25420;BME280;13354;48.174;11.566;2023-05-03T05:04:01;96422.25;;;8.50;100.00
25420;BME280;13354;48.174;11.566;2023-05-03T05:06:27;96427.22;;;8.53;100.00
25420;BME280;13354;48.174;11.566;2023-05-03T05:08:52;96430.69;;;8.53;100.00
25420;BME280;13354;48.174;11.566;2023-05-03T05:11:17;96429.22;;;8.51;100.00
25420;BME280;13354;48.174;11.566;2023-05-03T05:13:44;96432.31;;;8.46;100.00
25420;BME280;13354;48.174;11.566;2023-05-03T05:16:10;96431.00;;;8.50;100.00
25420;BME280;13354;48.174;11.566;2023-05-03T05:18:35;96428.84;;;8.54;100.00
25420;BME280;13354;48.174;11.566;2023-05-03T05:21:00;96428.22;;;8.60;100.00
25420;BME280;13354;48.174;11.566;2023-05-03T05:23:25;96431.69;;;8.60;100.00
25420;BME280;13354;48.174;11.566;2023-05-03T05:25:51;96434.50;;;8.67;100.00
25420;BME280;13354;48.174;11.566;2023-05-03T05:28:17;96437.31;;;8.65;100.00
25420;BME280;13354;48.174;11.566;2023-05-03T05:30:43;96440.13;;;8.72;100.00
25420;BME280;13354;48.174;11.566;2023-05-03T05:33:08;96446.09;;;8.74;100.00
25420;BME280;13354;48.174;11.566;2023-05-03T05:35:33;96445.75;;;8.77;100.00
25420;BME280;13354;48.174;11.566;2023-05-03T05:37:59;96446.59;;;8.78;100.00
25420;BME280;13354;48.174;11.566;2023-05-03T05:40:24;96445.44;;;8.80;100.00
25420;BME280;13354;48.174;11.566;2023-05-03T05:42:50;96445.47;;;8.88;100.00
25420;BME280;13354;48.174;11.566;2023-05-03T05:45:15;96440.81;;;8.90;100.00
25420;BME280;13354;48.174;11.566;2023-05-03T05:47:40;96447.94;;;8.98;100.00
25420;BME280;13354;48.174;11.566;2023-05-03T05:50:06;96449.59;;;8.99;100.00
25420;BME280;13354;48.174;11.566;2023-05-03T05:52:31;96453.88;;;9.00;100.00
25420;BME280;13354;48.174;11.566;2023-05-03T05:54:57;96447.09;;;8.98;100.00
25420;BME280;13354;48.174;11.566;2023-05-03T05:57:22;96452.75;;;9.03;100.00
25420;BME280;13354;48.174;11.566;2023-05-03T05:59:47;96450.25;;;9.01;100.00
25420;BME280;13354;48.174;11.566;2023-05-03T06:02:13;96444.16;;;9.01;100.00
25420;BME280;13354;48.174;11.566;2023-05-03T06:04:40;96447.13;;;9.06;100.00
25420;BME280;13354;48.174;11.566;2023-05-03T06:07:05;96456.84;;;9.05;100.00
25420;BME280;13354;48.174;11.566;2023-05-03T06:09:30;96457.84;;;9.12;100.00
25420;BME280;13354;48.174;11.566;2023-05-03T06:11:56;96457.53;;;9.15;100.00
25420;BME280;13354;48.174;11.566;2023-05-03T06:14:21;96462.16;;;9.13;100.00
25420;BME280;13354;48.174;11.566;2023-05-03T06:16:46;96462.16;;;9.13;100.00
25420;BME280;13354;48.174;11.566;2023-05-03T06:19:11;96469.91;;;9.15;100.00
25420;BME280;13354;48.174;11.566;2023-05-03T06:21:37;96466.28;;;9.16;100.00
25420;BME280;13354;48.174;11.566;2023-05-03T06:24:02;96464.00;;;9.21;100.00
25420;BME280;13354;48.174;11.566;2023-05-03T06:26:27;96466.47;;;9.14;100.00
25420;BME280;13354;48.174;11.566;2023-05-03T06:28:53;96468.59;;;9.19;100.00
25420;BME280;13354;48.174;11.566;2023-05-03T06:31:18;96473.56;;;9.14;100.00
25420;BME280;13354;48.174;11.566;2023-05-03T06:33:43;96475.03;;;9.16;100.00
25420;BME280;13354;48.174;11.566;2023-05-03T06:36:08;96477.84;;;9.23;100.00
25420;BME280;13354;48.174;11.566;2023-05-03T06:38:34;96475.53;;;9.12;100.00
25420;BME280;13354;48.174;11.566;2023-05-03T06:40:59;96478.03;;;9.13;100.00
25420;BME280;13354;48.174;11.566;2023-05-03T06:43:24;96473.06;;;9.27;100.00
25420;BME280;13354;48.174;11.566;2023-05-03T06:45:50;96479.84;;;9.29;100.00
25420;BME280;13354;48.174;11.566;2023-05-03T06:48:15;96480.81;;;9.12;100.00
25420;BME280;13354;48.174;11.566;2023-05-03T06:50:41;96476.53;;;9.27;100.00
25420;BME280;13354;48.174;11.566;2023-05-03T06:53:06;96469.63;;;9.51;100.00
25420;BME280;13354;48.174;11.566;2023-05-03T06:55:31;96476.19;;;9.71;100.00
25420;BME280;13354;48.174;11.566;2023-05-03T06:57:57;96481.97;;;9.91;100.00
25420;BME280;13354;48.174;11.566;2023-05-03T07:00:22;96482.94;;;10.06;100.00
25420;BME280;13354;48.174;11.566;2023-05-03T07:02:48;96483.41;;;10.10;100.00
25420;BME280;13354;48.174;11.566;2023-05-03T07:05:13;96476.78;;;10.14;100.00
25420;BME280;13354;48.174;11.566;2023-05-03T07:07:38;96480.94;;;10.16;99.15
25420;BME280;13354;48.174;11.566;2023-05-03T07:10:04;96477.78;;;10.13;98.40
25420;BME280;13354;48.174;11.566;2023-05-03T07:12:29;96480.44;;;10.13;98.80
25420;BME280;13354;48.174;11.566;2023-05-03T07:14:55;96478.41;;;10.23;98.95
25420;BME280;13354;48.174;11.566;2023-05-03T07:17:21;96478.44;;;10.31;99.14
25420;BME280;13354;48.174;11.566;2023-05-03T07:19:47;96479.78;;;10.27;98.03
25420;BME280;13354;48.174;11.566;2023-05-03T07:22:15;96473.47;;;10.20;97.58
25420;BME280;13354;48.174;11.566;2023-05-03T07:24:40;96471.84;;;10.11;96.93
25420;BME280;13354;48.174;11.566;2023-05-03T07:27:05;96471.84;;;10.11;97.03
25420;BME280;13354;48.174;11.566;2023-05-03T07:29:31;96461.44;;;10.01;97.50
25420;BME280;13354;48.174;11.566;2023-05-03T07:31:56;96467.72;;;10.00;97.70
25420;BME280;13354;48.174;11.566;2023-05-03T07:34:22;96468.22;;;9.96;98.30
25420;BME280;13354;48.174;11.566;2023-05-03T07:36:47;96469.56;;;9.91;98.77
25420;BME280;13354;48.174;11.566;2023-05-03T07:39:12;96469.59;;;9.83;99.90
25420;BME280;13354;48.174;11.566;2023-05-03T07:41:37;96464.63;;;9.80;100.00
25420;BME280;13354;48.174;11.566;2023-05-03T07:44:03;96471.56;;;9.81;100.00
25420;BME280;13354;48.174;11.566;2023-05-03T07:46:28;96467.75;;;9.84;100.00
25420;BME280;13354;48.174;11.566;2023-05-03T07:48:58;96466.91;;;9.91;100.00
25420;BME280;13354;48.174;11.566;2023-05-03T07:51:24;96467.22;;;9.97;100.00
25420;BME280;13354;48.174;11.566;2023-05-03T07:53:49;96469.38;;;10.01;100.00
25420;BME280;13354;48.174;11.566;2023-05-03T07:56:15;96458.28;;;10.06;100.00
25420;BME280;13354;48.174;11.566;2023-05-03T07:58:40;96466.53;;;10.11;100.00
25420;BME280;13354;48.174;11.566;2023-05-03T08:01:05;96462.75;;;10.13;100.00
25420;BME280;13354;48.174;11.566;2023-05-03T08:03:30;96460.41;;;10.19;100.00
25420;BME280;13354;48.174;11.566;2023-05-03T08:05:56;96461.06;;;10.21;100.00
25420;BME280;13354;48.174;11.566;2023-05-03T08:08:21;96467.00;;;10.31;100.00
25420;BME280;13354;48.174;11.566;2023-05-03T08:10:47;96459.22;;;10.29;100.00
25420;BME280;13354;48.174;11.566;2023-05-03T08:13:13;96462.69;;;10.30;100.00
25420;BME280;13354;48.174;11.566;2023-05-03T08:15:38;96452.78;;;10.32;100.00
25420;BME280;13354;48.174;11.566;2023-05-03T08:18:04;96455.91;;;10.35;100.00
25420;BME280;13354;48.174;11.566;2023-05-03T08:20:29;96460.88;;;10.38;100.00
25420;BME280;13354;48.174;11.566;2023-05-03T08:22:55;96461.22;;;10.35;100.00
25420;BME280;13354;48.174;11.566;2023-05-03T08:25:21;96464.34;;;10.31;100.00
25420;BME280;13354;48.174;11.566;2023-05-03T08:27:46;96465.16;;;10.39;100.00
25420;BME280;13354;48.174;11.566;2023-05-03T08:30:12;96465.31;;;10.46;99.55
25420;BME280;13354;48.174;11.566;2023-05-03T08:32:37;96463.91;;;10.58;98.90
25420;BME280;13354;48.174;11.566;2023-05-03T08:35:02;96466.88;;;10.63;98.75
25420;BME280;13354;48.174;11.566;2023-05-03T08:37:36;96472.63;;;10.67;99.72
25420;BME280;13354;48.174;11.566;2023-05-03T08:40:01;96455.53;;;10.78;98.29
25420;BME280;13354;48.174;11.566;2023-05-03T08:42:29;96454.38;;;10.80;96.13
25420;BME280;13354;48.174;11.566;2023-05-03T08:44:57;96450.97;;;10.95;95.22
25420;BME280;13354;48.174;11.566;2023-05-03T08:47:22;96449.50;;;10.92;94.56
25420;BME280;13354;48.174;11.566;2023-05-03T08:49:48;96449.03;;;11.11;93.71
25420;BME280;13354;48.174;11.566;2023-05-03T08:52:14;96450.72;;;11.12;92.80
25420;BME280;13354;48.174;11.566;2023-05-03T08:54:45;96451.94;;;11.02;93.56
25420;BME280;13354;48.174;11.566;2023-05-03T08:57:12;96444.75;;;11.10;94.54
25420;BME280;13354;48.174;11.566;2023-05-03T08:59:48;96453.88;;;11.08;95.30
25420;BME280;13354;48.174;11.566;2023-05-03T09:02:13;96449.34;;;11.17;95.78
25420;BME280;13354;48.174;11.566;2023-05-03T09:04:38;96463.94;;;11.35;95.79
25420;BME280;13354;48.174;11.566;2023-05-03T09:07:08;96453.97;;;11.37;95.27
25420;BME280;13354;48.174;11.566;2023-05-03T09:09:33;96470.38;;;11.18;94.63
25420;BME280;13354;48.174;11.566;2023-05-03T09:11:58;96463.53;;;11.24;94.14
25420;BME280;13354;48.174;11.566;2023-05-03T09:14:24;96469.94;;;11.29;92.78
25420;BME280;13354;48.174;11.566;2023-05-03T09:16:49;96466.53;;;11.21;94.33
25420;BME280;13354;48.174;11.566;2023-05-03T09:19:15;96468.59;;;11.10;94.80
25420;BME280;13354;48.174;11.566;2023-05-03T09:21:41;96465.31;;;11.08;95.95
25420;BME280;13354;48.174;11.566;2023-05-03T09:24:16;96469.25;;;11.12;94.88
25420;BME280;13354;48.174;11.566;2023-05-03T09:26:41;96474.03;;;11.17;94.67
25420;BME280;13354;48.174;11.566;2023-05-03T09:29:07;96478.28;;;10.95;95.89
25420;BME280;13354;48.174;11.566;2023-05-03T09:31:33;96473.06;;;11.10;95.52
25420;BME280;13354;48.174;11.566;2023-05-03T09:33:59;96478.78;;;10.99;96.40
25420;BME280;13354;48.174;11.566;2023-05-03T09:36:24;96474.59;;;11.04;95.69
25420;BME280;13354;48.174;11.566;2023-05-03T09:38:51;96475.19;;;11.15;95.38
25420;BME280;13354;48.174;11.566;2023-05-03T09:41:30;96464.97;;;11.34;95.11
25420;BME280;13354;48.174;11.566;2023-05-03T09:43:55;96473.63;;;11.28;94.03
25420;BME280;13354;48.174;11.566;2023-05-03T09:46:26;96462.94;;;11.36;93.49
25420;BME280;13354;48.174;11.566;2023-05-03T09:48:53;96459.19;;;11.31;93.64
25420;BME280;13354;48.174;11.566;2023-05-03T09:51:21;96466.06;;;11.40;94.72
25420;BME280;13354;48.174;11.566;2023-05-03T09:53:46;96463.34;;;11.48;94.62
25420;BME280;13354;48.174;11.566;2023-05-03T09:56:12;96459.16;;;11.54;94.85
25420;BME280;13354;48.174;11.566;2023-05-03T09:58:38;96459.91;;;11.63;93.08
25420;BME280;13354;48.174;11.566;2023-05-03T10:01:03;96460.84;;;11.70;91.94
25420;BME280;13354;48.174;11.566;2023-05-03T10:03:42;96459.38;;;11.90;91.63
25420;BME280;13354;48.174;11.566;2023-05-03T10:06:21;96459.84;;;12.08;92.96
25420;BME280;13354;48.174;11.566;2023-05-03T10:08:50;96452.16;;;12.43;91.88
25420;BME280;13354;48.174;11.566;2023-05-03T10:11:16;96448.84;;;12.92;90.57
25420;BME280;13354;48.174;11.566;2023-05-03T10:13:42;96452.19;;;13.16;86.44
25420;BME280;13354;48.174;11.566;2023-05-03T10:16:08;96443.19;;;13.17;83.00
25420;BME280;13354;48.174;11.566;2023-05-03T10:18:36;96448.41;;;13.25;82.76
25420;BME280;13354;48.174;11.566;2023-05-03T10:21:03;96434.41;;;13.38;83.07
25420;BME280;13354;48.174;11.566;2023-05-03T10:23:30;96440.66;;;14.01;82.44
25420;BME280;13354;48.174;11.566;2023-05-03T10:28:31;96439.34;;;14.18;78.03
25420;BME280;13354;48.174;11.566;2023-05-03T10:30:57;96445.69;;;14.24;77.92
25420;BME280;13354;48.174;11.566;2023-05-03T10:33:31;96448.97;;;14.54;78.31
25420;BME280;13354;48.174;11.566;2023-05-03T10:35:58;96429.03;;;14.91;77.14
25420;BME280;13354;48.174;11.566;2023-05-03T10:38:28;96429.44;;;15.02;75.73
25420;BME280;13354;48.174;11.566;2023-05-03T10:40:54;96431.09;;;14.96;73.09
25420;BME280;13354;48.174;11.566;2023-05-03T10:45:58;96427.50;;;15.43;72.85
25420;BME280;13354;48.174;11.566;2023-05-03T10:48:23;96426.47;;;16.04;72.21
25420;BME280;13354;48.174;11.566;2023-05-03T10:50:48;96427.25;;;16.31;68.34
25420;BME280;13354;48.174;11.566;2023-05-03T10:56:01;96420.28;;;17.52;65.79
25420;BME280;13354;48.174;11.566;2023-05-03T10:58:34;96419.22;;;18.09;64.40
25420;BME280;13354;48.174;11.566;2023-05-03T11:00:59;96418.81;;;17.88;63.50
25420;BME280;13354;48.174;11.566;2023-05-03T11:03:30;96419.59;;;17.38;62.53
25420;BME280;13354;48.174;11.566;2023-05-03T11:05:58;96416.59;;;17.21;62.85
25420;BME280;13354;48.174;11.566;2023-05-03T11:08:23;96410.69;;;17.69;63.85
25420;BME280;13354;48.174;11.566;2023-05-03T11:10:58;96419.72;;;17.50;63.50
25420;BME280;13354;48.174;11.566;2023-05-03T11:13:24;96415.91;;;17.89;62.73
25420;BME280;13354;48.174;11.566;2023-05-03T11:15:50;96416.94;;;18.50;62.33
25420;BME280;13354;48.174;11.566;2023-05-03T11:18:16;96412.16;;;18.89;59.76
25420;BME280;13354;48.174;11.566;2023-05-03T11:20:42;96412.28;;;19.12;58.03
25420;BME280;13354;48.174;11.566;2023-05-03T11:23:07;96410.50;;;19.78;57.58
25420;BME280;13354;48.174;11.566;2023-05-03T11:25:33;96405.47;;;20.17;56.14
25420;BME280;13354;48.174;11.566;2023-05-03T11:27:58;96400.41;;;20.32;53.89
25420;BME280;13354;48.174;11.566;2023-05-03T11:30:24;96395.66;;;20.22;54.39
25420;BME280;13354;48.174;11.566;2023-05-03T11:32:49;96398.94;;;20.01;53.26
25420;BME280;13354;48.174;11.566;2023-05-03T11:35:14;96397.75;;;19.85;54.16
25420;BME280;13354;48.174;11.566;2023-05-03T11:37:41;96399.28;;;19.81;55.71
25420;BME280;13354;48.174;11.566;2023-05-03T11:40:12;96392.44;;;20.49;52.92
25420;BME280;13354;48.174;11.566;2023-05-03T11:42:53;96393.50;;;21.29;51.88
25420;BME280;13354;48.174;11.566;2023-05-03T11:45:20;96389.13;;;21.56;49.16
25420;BME280;13354;48.174;11.566;2023-05-03T11:47:47;96389.41;;;21.55;49.91
25420;BME280;13354;48.174;11.566;2023-05-03T11:50:13;96384.16;;;21.99;48.72
25420;BME280;13354;48.174;11.566;2023-05-03T11:52:38;96384.88;;;21.94;49.48
25420;BME280;13354;48.174;11.566;2023-05-03T11:55:06;96386.53;;;21.95;48.44
25420;BME280;13354;48.174;11.566;2023-05-03T11:57:31;96377.06;;;21.76;48.79
25420;BME280;13354;48.174;11.566;2023-05-03T12:00:08;96378.34;;;21.90;49.72
25420;BME280;13354;48.174;11.566;2023-05-03T12:02:34;96384.75;;;22.17;48.54
25420;BME280;13354;48.174;11.566;2023-05-03T12:05:00;96371.25;;;22.17;48.26
25420;BME280;13354;48.174;11.566;2023-05-03T12:07:25;96369.88;;;21.81;49.19
25420;BME280;13354;48.174;11.566;2023-05-03T12:09:51;96369.94;;;21.53;48.02
25420;BME280;13354;48.174;11.566;2023-05-03T12:12:19;96369.72;;;21.54;49.25
25420;BME280;13354;48.174;11.566;2023-05-03T12:14:55;96360.88;;;20.96;48.03
25420;BME280;13354;48.174;11.566;2023-05-03T12:17:35;96366.28;;;20.44;49.22
25420;BME280;13354;48.174;11.566;2023-05-03T12:20:17;96360.78;;;20.51;51.29
25420;BME280;13354;48.174;11.566;2023-05-03T12:22:43;96356.31;;;20.57;51.07
25420;BME280;13354;48.174;11.566;2023-05-03T12:25:08;96351.16;;;20.67;51.64
25420;BME280;13354;48.174;11.566;2023-05-03T12:27:33;96355.09;;;20.76;50.81
25420;BME280;13354;48.174;11.566;2023-05-03T12:29:58;96349.34;;;20.72;50.49
25420;BME280;13354;48.174;11.566;2023-05-03T12:32:24;96353.53;;;20.80;49.80
25420;BME280;13354;48.174;11.566;2023-05-03T12:34:49;96360.13;;;20.09;49.70
25420;BME280;13354;48.174;11.566;2023-05-03T12:37:14;96357.81;;;19.89;51.52
25420;BME280;13354;48.174;11.566;2023-05-03T12:39:40;96351.84;;;19.87;50.19
25420;BME280;13354;48.174;11.566;2023-05-03T12:42:06;96345.41;;;19.99;50.62
25420;BME280;13354;48.174;11.566;2023-05-03T12:44:32;96336.59;;;20.27;49.98
25420;BME280;13354;48.174;11.566;2023-05-03T12:46:57;96336.75;;;20.09;48.08
25420;BME280;13354;48.174;11.566;2023-05-03T12:49:22;96336.25;;;20.24;48.86
25420;BME280;13354;48.174;11.566;2023-05-03T12:51:47;96328.22;;;20.64;50.17
25420;BME280;13354;48.174;11.566;2023-05-03T12:54:12;96328.84;;;20.83;49.31
25420;BME280;13354;48.174;11.566;2023-05-03T12:56:38;96326.03;;;20.49;48.77
25420;BME280;13354;48.174;11.566;2023-05-03T12:59:03;96336.81;;;20.38;48.99
25420;BME280;13354;48.174;11.566;2023-05-03T13:01:28;96333.84;;;20.11;48.38
25420;BME280;13354;48.174;11.566;2023-05-03T13:03:53;96330.91;;;20.12;48.26
25420;BME280;13354;48.174;11.566;2023-05-03T13:06:18;96322.50;;;20.09;47.54